Arbor Vitae, Wisconsin
Current Conditions -  °F | °C
As of 5:55 PM on Friday 24 Oct 2014 (Local Time) from KARV Reporting Station
Overcast Overcast  
Wind Chill: 59°   Ceiling: 2300
Heat Index: 59°   Visibility: 10mi
Dew Point: 51°   Wind: 9mph
Humidity: 74%   Direction: 220°SW
Pressure: 29.83"   Gusts: NA
Location:  45.9553°N, 89.6779°W
Report Text: KARV 242255Z AUTO 22008KT 10SM OVC023 15/11 A2983 RMK AO2 T01520106
Loading
Personal Weather Stations






























Interactive Weather Map
Tropical Storm Tracking
New forecast layout! Learn more

10-Day Weather Forecast

Advertisements
Track Severe Weather on mobile